Time;durP1;ratioP1;P1;durP2;ratioP2;P2;SDS_P1;SDS_P2;PMS_P1;PMS_P2;Temp;Humidity;BMP_temperature;BMP_pressure;BME280_temperature;BME280_humidity;BME280_pressure;Samples;Min_cycle;Max_cycle;Signal;HPM_P1;HPM_P2
2022/07/19 00:02:10;;;;;;;11.35;4.60;;;19.80;99.90;;;;;;5069574;28;20536;-68
2022/07/19 00:04:36;;;;;;;7.45;4.88;;;19.80;99.90;;;;;;5071064;28;20494;-68
2022/07/19 00:07:02;;;;;;;11.48;5.43;;;19.70;99.90;;;;;;5070597;28;20025;-68
2022/07/19 00:09:28;;;;;;;5.35;4.75;;;19.70;99.90;;;;;;5067808;28;20032;-68
2022/07/19 00:11:55;;;;;;;18.35;4.95;;;19.70;99.90;;;;;;5070728;28;20119;-68
2022/07/19 00:14:21;;;;;;;8.57;4.57;;;19.70;99.90;;;;;;5064959;28;20024;-68
2022/07/19 00:16:47;;;;;;;5.07;3.95;;;19.70;99.90;;;;;;5064900;28;20031;-68
2022/07/19 00:19:13;;;;;;;11.10;4.70;;;19.60;99.90;;;;;;5070135;28;20036;-68
2022/07/19 00:21:38;;;;;;;15.73;5.10;;;19.60;99.90;;;;;;5069248;28;20037;-68
2022/07/19 00:24:04;;;;;;;9.73;5.43;;;19.50;99.90;;;;;;5065212;28;20032;-68
2022/07/19 00:26:29;;;;;;;6.35;3.92;;;19.50;99.90;;;;;;5070424;28;20032;-68
2022/07/19 00:28:56;;;;;;;7.43;4.22;;;19.40;99.90;;;;;;5070127;28;20111;-68
2022/07/19 00:31:22;;;;;;;9.02;4.40;;;19.30;99.90;;;;;;5069396;28;20512;-68
2022/07/19 00:33:48;;;;;;;5.75;4.22;;;19.30;99.90;;;;;;5070749;28;20486;-68
2022/07/19 00:36:14;;;;;;;9.48;4.70;;;19.20;99.90;;;;;;5069947;28;20059;-68
2022/07/19 00:38:39;;;;;;;6.78;4.78;;;19.20;99.90;;;;;;5070394;28;20036;-68
2022/07/19 00:41:05;;;;;;;8.38;5.50;;;19.10;99.90;;;;;;5063317;28;20071;-68
2022/07/19 00:43:31;;;;;;;9.70;5.10;;;19.10;99.90;;;;;;5065735;28;20090;-68
2022/07/19 00:45:57;;;;;;;9.43;5.35;;;19.10;99.90;;;;;;5068647;28;20028;-68
2022/07/19 00:48:23;;;;;;;7.82;4.80;;;19.00;99.90;;;;;;5068110;28;20021;-68
2022/07/19 00:50:48;;;;;;;11.07;5.00;;;19.00;99.90;;;;;;5069187;28;20025;-69
2022/07/19 00:53:15;;;;;;;10.38;4.70;;;19.00;99.90;;;;;;5070527;28;20595;-68
2022/07/19 00:55:43;;;;;;;9.32;5.18;;;19.00;99.90;;;;;;5063351;28;20028;-68
2022/07/19 00:58:10;;;;;;;9.57;5.22;;;18.90;99.90;;;;;;5066174;28;20078;-68
2022/07/19 01:00:35;;;;;;;8.98;5.05;;;18.90;99.90;;;;;;5069190;28;20024;-68
2022/07/19 01:03:02;;;;;;;10.10;5.47;;;18.80;99.90;;;;;;5069943;28;20597;-68
2022/07/19 01:05:28;;;;;;;7.72;5.55;;;18.80;99.90;;;;;;5070346;28;20028;-69
2022/07/19 01:07:53;;;;;;;8.88;5.47;;;18.80;99.90;;;;;;5068724;28;20116;-68
2022/07/19 01:10:19;;;;;;;13.63;5.68;;;18.80;99.90;;;;;;5069202;28;20035;-68
2022/07/19 01:12:45;;;;;;;8.27;4.72;;;18.80;99.90;;;;;;5069753;28;20106;-68
2022/07/19 01:15:13;;;;;;;14.15;4.90;;;18.80;99.90;;;;;;5067603;28;20111;-68
2022/07/19 01:17:39;;;;;;;7.38;4.72;;;18.70;99.90;;;;;;5067641;28;20025;-68
2022/07/19 01:20:05;;;;;;;7.78;4.82;;;18.60;99.90;;;;;;5069266;28;20025;-69
2022/07/19 01:22:31;;;;;;;9.48;4.63;;;18.60;99.90;;;;;;5071962;28;20040;-68
2022/07/19 01:24:56;;;;;;;7.70;5.20;;;18.60;99.90;;;;;;5073608;28;20086;-68
2022/07/19 01:27:22;;;;;;;4.93;3.90;;;18.50;99.90;;;;;;5073274;28;20051;-68
2022/07/19 01:29:47;;;;;;;8.13;4.07;;;18.50;99.90;;;;;;5073049;28;20021;-68
2022/07/19 01:32:13;;;;;;;10.25;4.93;;;18.50;99.90;;;;;;5072652;28;20039;-68
2022/07/19 01:34:38;;;;;;;12.00;5.68;;;18.40;99.90;;;;;;5074083;28;20419;-68
2022/07/19 01:37:04;;;;;;;10.38;5.30;;;18.30;99.90;;;;;;5072283;28;20158;-68
2022/07/19 01:39:29;;;;;;;8.48;5.10;;;18.30;99.90;;;;;;5073889;28;20514;-68
2022/07/19 01:41:55;;;;;;;12.90;6.43;;;18.30;99.90;;;;;;5072583;28;20518;-68
2022/07/19 01:44:20;;;;;;;9.75;6.03;;;18.20;99.90;;;;;;5073221;28;20128;-68
2022/07/19 01:46:46;;;;;;;12.77;5.63;;;18.20;99.90;;;;;;5073404;28;20470;-69
2022/07/19 01:49:11;;;;;;;11.88;5.85;;;18.20;99.90;;;;;;5073733;28;20093;-68
2022/07/19 01:51:37;;;;;;;9.70;5.75;;;18.20;99.90;;;;;;5069780;28;20075;-68
2022/07/19 01:54:03;;;;;;;6.35;5.47;;;18.20;99.90;;;;;;5073949;28;20054;-68
2022/07/19 01:56:28;;;;;;;9.32;5.57;;;18.20;99.90;;;;;;5072432;28;20029;-68
2022/07/19 01:58:54;;;;;;;8.82;5.15;;;18.20;99.90;;;;;;5083729;22;20603;-60
2022/07/19 02:01:19;;;;;;;8.23;5.32;;;18.20;99.90;;;;;;5026382;28;20476;-57
2022/07/19 02:03:45;;;;;;;10.18;4.43;;;18.30;99.90;;;;;;5031122;28;20399;-58
2022/07/19 02:06:10;;;;;;;6.93;4.15;;;18.30;99.90;;;;;;5028695;28;20123;-59
2022/07/19 02:08:36;;;;;;;8.38;4.47;;;18.30;99.90;;;;;;5032354;28;20025;-59
2022/07/19 02:13:47;;;;;;;;;;;18.30;99.90;;;;;;5030475;28;20115;-59
2022/07/19 02:16:13;;;;;;;10.95;4.07;;;18.30;99.90;;;;;;5031123;28;20383;-58
2022/07/19 02:18:38;;;;;;;6.28;4.15;;;18.30;99.90;;;;;;5034766;28;20039;-58
2022/07/19 02:21:04;;;;;;;6.55;4.65;;;18.30;99.90;;;;;;5031491;28;20040;-59
2022/07/19 02:23:29;;;;;;;10.73;4.35;;;18.20;99.90;;;;;;5033193;28;20499;-59
2022/07/19 02:25:55;;;;;;;8.57;4.55;;;18.30;99.90;;;;;;5031353;28;20447;-59
2022/07/19 02:28:20;;;;;;;4.70;3.75;;;18.30;99.90;;;;;;5031766;28;20480;-59
2022/07/19 02:30:46;;;;;;;6.70;3.58;;;18.30;99.90;;;;;;5029610;28;20535;-59
2022/07/19 02:33:12;;;;;;;7.28;4.38;;;18.30;99.90;;;;;;5030729;28;20121;-59
2022/07/19 02:35:37;;;;;;;4.97;3.50;;;18.30;99.90;;;;;;5031174;28;20044;-59
2022/07/19 02:38:03;;;;;;;5.13;3.88;;;18.20;99.90;;;;;;5035873;28;20052;-58
2022/07/19 02:40:28;;;;;;;6.47;3.10;;;18.30;99.90;;;;;;5032868;28;20025;-58
2022/07/19 02:42:54;;;;;;;4.25;3.13;;;18.30;99.90;;;;;;5032937;28;20041;-58
2022/07/19 02:45:19;;;;;;;10.20;3.55;;;18.30;99.90;;;;;;5013171;28;20026;-58
2022/07/19 02:47:46;;;;;;;4.10;2.90;;;18.30;99.90;;;;;;5037429;28;20025;-59
2022/07/19 02:50:12;;;;;;;7.93;3.47;;;18.20;99.90;;;;;;5033363;28;20028;-59
2022/07/19 02:52:37;;;;;;;6.90;3.08;;;18.20;99.90;;;;;;5031680;28;20029;-57
2022/07/19 02:55:04;;;;;;;5.82;2.85;;;18.20;99.90;;;;;;5034069;28;20504;-59
2022/07/19 02:57:29;;;;;;;7.78;3.80;;;18.10;99.90;;;;;;5031746;28;20574;-58
2022/07/19 02:59:55;;;;;;;5.18;3.15;;;18.00;99.90;;;;;;5032765;28;20128;-57
2022/07/19 03:02:20;;;;;;;8.52;3.17;;;18.00;99.90;;;;;;5032019;28;20029;-58
2022/07/19 03:04:46;;;;;;;8.55;3.63;;;17.90;99.90;;;;;;5032032;28;20029;-59
2022/07/19 03:07:11;;;;;;;9.75;3.92;;;17.80;99.90;;;;;;5030666;28;20029;-57
2022/07/19 03:09:37;;;;;;;4.75;3.15;;;17.80;99.90;;;;;;5031958;28;20048;-59
2022/07/19 03:12:03;;;;;;;11.27;3.38;;;17.80;99.90;;;;;;5038202;28;20029;-59
2022/07/19 03:14:28;;;;;;;4.50;2.47;;;17.80;99.90;;;;;;5026077;28;20025;-57
2022/07/19 03:16:54;;;;;;;4.30;2.72;;;17.80;99.90;;;;;;5015208;28;20119;-59
2022/07/19 03:19:19;;;;;;;5.07;3.10;;;17.80;99.90;;;;;;5031564;28;20071;-59
2022/07/19 03:21:45;;;;;;;5.60;2.47;;;17.80;99.90;;;;;;5033659;28;20064;-58
2022/07/19 03:24:10;;;;;;;6.43;3.08;;;17.80;99.90;;;;;;5031501;28;20144;-59
2022/07/19 03:26:36;;;;;;;5.38;3.10;;;17.80;99.90;;;;;;5030275;28;20547;-58
2022/07/19 03:29:01;;;;;;;9.13;3.10;;;17.80;99.90;;;;;;5028509;28;20056;-59
2022/07/19 03:31:27;;;;;;;5.63;3.13;;;17.80;99.90;;;;;;5031343;28;20507;-59
2022/07/19 03:33:52;;;;;;;4.97;3.03;;;17.80;99.90;;;;;;5032762;28;20037;-58
2022/07/19 03:36:18;;;;;;;11.82;3.67;;;17.80;99.90;;;;;;5032140;28;20021;-58
2022/07/19 03:38:43;;;;;;;7.55;2.60;;;17.80;99.90;;;;;;5032487;28;20495;-55
2022/07/19 03:41:09;;;;;;;7.90;3.03;;;17.80;99.90;;;;;;5027898;28;20118;-57
2022/07/19 03:43:37;;;;;;;5.00;3.35;;;17.80;99.90;;;;;;5033934;28;20044;-59
2022/07/19 03:46:03;;;;;;;3.88;2.60;;;17.80;99.90;;;;;;5029658;28;20027;-58
2022/07/19 03:48:28;;;;;;;4.47;2.92;;;17.80;99.90;;;;;;5034077;28;20402;-58
2022/07/19 03:50:54;;;;;;;5.32;2.38;;;17.80;99.90;;;;;;5037060;28;20044;-59
2022/07/19 03:53:19;;;;;;;3.20;2.53;;;17.80;99.90;;;;;;5030857;28;20052;-59
2022/07/19 03:55:45;;;;;;;5.47;3.03;;;17.80;99.90;;;;;;5032540;28;20462;-59
2022/07/19 03:58:10;;;;;;;5.13;2.55;;;17.80;99.90;;;;;;5031218;28;20025;-59
2022/07/19 04:00:36;;;;;;;3.97;2.53;;;17.80;99.90;;;;;;5035151;28;20088;-59
2022/07/19 04:03:02;;;;;;;5.20;2.50;;;17.80;99.90;;;;;;5030453;28;20080;-59
2022/07/19 04:05:28;;;;;;;4.32;2.75;;;17.80;99.90;;;;;;5031735;28;20510;-58
2022/07/19 04:07:54;;;;;;;4.47;2.67;;;17.80;99.90;;;;;;5041943;28;20037;-59
2022/07/19 04:10:20;;;;;;;4.78;2.80;;;17.80;99.90;;;;;;5034929;28;20033;-59
2022/07/19 04:12:45;;;;;;;7.78;2.70;;;17.80;99.90;;;;;;5029454;28;20033;-58
2022/07/19 04:15:11;;;;;;;7.65;3.00;;;17.80;99.90;;;;;;5030611;28;20033;-58
2022/07/19 04:17:36;;;;;;;3.20;2.42;;;17.80;99.90;;;;;;5036642;28;20048;-58
2022/07/19 04:20:03;;;;;;;4.93;2.65;;;17.90;99.90;;;;;;5036977;28;20099;-59
2022/07/19 04:22:30;;;;;;;10.90;2.90;;;17.90;99.90;;;;;;5030039;28;20040;-59
2022/07/19 04:24:55;;;;;;;3.13;2.60;;;17.90;99.90;;;;;;5036869;28;20530;-59
2022/07/19 04:27:21;;;;;;;3.60;2.08;;;17.90;99.90;;;;;;5031267;28;20156;-59
2022/07/19 04:29:47;;;;;;;10.98;2.97;;;17.90;99.90;;;;;;5030951;28;20059;-59
2022/07/19 04:32:12;;;;;;;6.70;2.60;;;17.90;99.90;;;;;;5029695;28;20025;-58
2022/07/19 04:34:38;;;;;;;6.75;2.80;;;17.90;99.90;;;;;;5029861;28;20048;-59
2022/07/19 04:37:05;;;;;;;8.57;3.22;;;18.00;99.90;;;;;;5030698;28;20549;-59
2022/07/19 04:39:30;;;;;;;6.60;2.58;;;18.00;99.90;;;;;;5029344;28;20064;-59
2022/07/19 04:41:56;;;;;;;6.97;2.72;;;18.00;99.90;;;;;;5032707;28;20067;-59
2022/07/19 04:44:21;;;;;;;5.18;2.70;;;18.00;99.90;;;;;;5032421;28;20116;-59
2022/07/19 04:46:47;;;;;;;8.30;2.55;;;18.10;99.90;;;;;;5031644;28;20164;-59
2022/07/19 04:49:12;;;;;;;5.20;2.40;;;18.10;99.90;;;;;;5029938;28;20430;-59
2022/07/19 04:51:38;;;;;;;5.43;2.88;;;18.20;99.90;;;;;;5034129;28;20037;-58
2022/07/19 04:54:03;;;;;;;6.72;2.50;;;18.20;99.90;;;;;;5029852;28;20036;-59
2022/07/19 04:56:29;;;;;;;6.22;3.08;;;18.20;99.90;;;;;;5032450;28;20029;-58
2022/07/19 04:58:54;;;;;;;7.00;2.90;;;18.30;99.90;;;;;;5028219;28;20492;-59
2022/07/19 05:01:20;;;;;;;6.65;3.22;;;18.40;99.90;;;;;;5029831;28;20492;-60
2022/07/19 05:03:45;;;;;;;8.98;3.00;;;18.40;99.90;;;;;;5032898;28;20041;-59
2022/07/19 05:06:11;;;;;;;4.65;2.95;;;18.50;99.90;;;;;;5029338;28;20034;-56
2022/07/19 05:08:36;;;;;;;4.68;2.70;;;18.50;99.90;;;;;;5031065;28;20111;-57
2022/07/19 05:11:02;;;;;;;14.90;2.83;;;18.60;99.90;;;;;;5028891;28;20438;-57
2022/07/19 05:13:27;;;;;;;3.75;2.30;;;18.60;99.90;;;;;;5033461;28;20033;-57
2022/07/19 05:15:53;;;;;;;4.22;2.58;;;18.70;99.90;;;;;;5037845;28;20025;-58
2022/07/19 05:18:18;;;;;;;4.53;2.70;;;18.70;99.90;;;;;;5028808;28;20037;-59
2022/07/19 05:20:44;;;;;;;5.07;2.28;;;18.80;99.90;;;;;;5029231;28;20069;-59
2022/07/19 05:23:09;;;;;;;5.95;3.72;;;18.80;99.90;;;;;;5029025;28;20038;-59
2022/07/19 05:25:35;;;;;;;10.40;3.33;;;18.90;99.90;;;;;;5029103;28;20390;-58
2022/07/19 05:28:00;;;;;;;5.47;2.45;;;18.90;99.90;;;;;;5029638;28;20034;-58
2022/07/19 05:30:26;;;;;;;4.95;2.53;;;19.00;99.90;;;;;;5027025;28;20039;-59
2022/07/19 05:32:51;;;;;;;5.03;2.78;;;19.10;99.90;;;;;;5028973;28;20041;-59
2022/07/19 05:35:17;;;;;;;5.57;2.50;;;19.20;99.90;;;;;;5023807;28;20219;-59
2022/07/19 05:37:42;;;;;;;7.78;2.80;;;19.20;99.90;;;;;;5030113;28;20029;-57
2022/07/19 05:40:09;;;;;;;4.63;2.95;;;19.30;99.90;;;;;;5028122;28;20129;-59
2022/07/19 05:42:34;;;;;;;4.95;2.40;;;19.40;99.90;;;;;;5028189;28;20044;-59
2022/07/19 05:45:00;;;;;;;9.95;2.97;;;19.50;99.90;;;;;;5027803;28;20022;-59
2022/07/19 05:47:25;;;;;;;3.75;2.58;;;19.50;99.90;;;;;;5025926;28;20075;-59
2022/07/19 05:49:51;;;;;;;6.53;2.85;;;19.60;99.90;;;;;;5031684;28;20441;-59
2022/07/19 05:52:16;;;;;;;9.57;3.30;;;19.70;99.90;;;;;;5033547;28;20549;-59
2022/07/19 05:54:42;;;;;;;5.95;2.85;;;19.80;99.90;;;;;;5026237;28;20026;-59
2022/07/19 05:57:08;;;;;;;4.72;2.78;;;19.90;99.90;;;;;;5027205;28;20030;-59
2022/07/19 05:59:35;;;;;;;8.05;2.83;;;20.00;99.90;;;;;;5024513;28;20029;-59
2022/07/19 06:02:01;;;;;;;4.00;2.40;;;20.00;99.90;;;;;;5030968;28;20030;-59
2022/07/19 06:04:27;;;;;;;8.27;2.90;;;20.10;99.90;;;;;;5030284;28;20490;-59
2022/07/19 06:06:53;;;;;;;10.10;3.00;;;20.20;99.90;;;;;;5031396;28;20121;-58
2022/07/19 06:09:18;;;;;;;6.15;2.53;;;20.30;99.90;;;;;;5027755;28;20033;-58
2022/07/19 06:11:44;;;;;;;7.55;3.10;;;20.40;99.90;;;;;;5031006;28;20048;-59
2022/07/19 06:14:09;;;;;;;7.88;2.15;;;20.50;99.90;;;;;;5030642;28;20034;-59
2022/07/19 06:16:37;;;;;;;4.13;2.95;;;20.60;99.90;;;;;;5036571;28;20060;-59
2022/07/19 06:19:04;;;;;;;5.65;2.80;;;20.60;99.90;;;;;;5030407;28;20074;-59
2022/07/19 06:21:29;;;;;;;8.32;2.78;;;20.70;99.90;;;;;;5036714;28;20033;-59
2022/07/19 06:23:55;;;;;;;11.02;3.45;;;20.80;99.90;;;;;;5031065;28;20458;-58
2022/07/19 06:26:20;;;;;;;7.22;2.60;;;20.90;99.90;;;;;;5029686;28;20441;-59
2022/07/19 06:28:46;;;;;;;7.97;2.78;;;21.00;99.90;;;;;;5031044;28;20033;-59
2022/07/19 06:31:13;;;;;;;7.80;3.15;;;21.10;99.90;;;;;;5035219;28;20071;-59
2022/07/19 06:33:40;;;;;;;7.13;2.83;;;21.20;99.90;;;;;;5012931;28;20030;-59
2022/07/19 06:36:06;;;;;;;3.58;2.40;;;21.20;99.90;;;;;;5033265;28;20029;-58
2022/07/19 06:38:31;;;;;;;6.13;2.33;;;21.40;99.90;;;;;;5029224;28;20415;-58
2022/07/19 06:40:57;;;;;;;7.80;3.40;;;21.50;99.90;;;;;;5030776;28;20030;-59
2022/07/19 06:43:22;;;;;;;9.40;2.90;;;21.60;99.90;;;;;;5028122;28;20408;-58
2022/07/19 06:45:48;;;;;;;9.57;5.25;;;21.70;99.90;;;;;;5031519;28;20029;-58
2022/07/19 06:48:13;;;;;;;9.52;4.55;;;21.80;99.90;;;;;;5032770;28;20029;-59
2022/07/19 06:50:39;;;;;;;8.10;3.67;;;21.80;99.90;;;;;;5030376;28;20096;-59
2022/07/19 06:53:04;;;;;;;8.23;3.25;;;22.00;99.90;;;;;;5029817;28;20554;-59
2022/07/19 06:55:30;;;;;;;12.80;3.05;;;22.00;99.90;;;;;;5030910;28;20021;-59
2022/07/19 06:57:55;;;;;;;8.43;2.67;;;22.20;99.90;;;;;;5029091;28;20029;-58
2022/07/19 07:00:21;;;;;;;4.43;2.40;;;22.30;99.90;;;;;;5025685;28;20079;-58
2022/07/19 07:02:47;;;;;;;8.85;2.95;;;22.40;99.90;;;;;;5029723;28;20037;-58
2022/07/19 07:05:13;;;;;;;19.10;3.10;;;22.50;99.90;;;;;;5025216;28;20027;-56
2022/07/19 07:07:39;;;;;;;6.60;2.88;;;22.60;99.90;;;;;;5027208;28;20032;-58
2022/07/19 07:10:06;;;;;;;4.63;2.28;;;22.70;99.90;;;;;;5008714;28;20087;-59
2022/07/19 07:12:32;;;;;;;4.85;2.97;;;22.80;99.90;;;;;;5031209;28;20151;-58
2022/07/19 07:14:58;;;;;;;12.38;2.83;;;22.90;99.90;;;;;;5026426;28;20381;-59
2022/07/19 07:17:24;;;;;;;12.10;2.90;;;23.00;99.90;;;;;;5027015;28;20025;-59
2022/07/19 07:19:49;;;;;;;6.28;3.00;;;23.10;99.90;;;;;;5025897;28;20037;-59
2022/07/19 07:22:15;;;;;;;9.43;2.90;;;23.20;99.90;;;;;;5030081;28;20393;-59
2022/07/19 07:24:40;;;;;;;7.00;3.97;;;23.30;99.90;;;;;;5029319;28;20079;-59
2022/07/19 07:27:06;;;;;;;6.07;2.75;;;23.40;99.90;;;;;;5029992;28;20511;-59
2022/07/19 07:29:32;;;;;;;8.95;3.13;;;23.50;99.90;;;;;;5026401;28;20514;-59
2022/07/19 07:31:57;;;;;;;8.52;3.15;;;23.80;99.90;;;;;;5028170;28;20494;-59
2022/07/19 07:34:23;;;;;;;9.10;3.22;;;23.90;99.90;;;;;;5025029;28;20041;-58
2022/07/19 07:36:49;;;;;;;8.15;2.88;;;24.00;99.90;;;;;;5028384;28;20028;-59
2022/07/19 07:39:14;;;;;;;6.35;2.70;;;24.10;99.90;;;;;;5027379;28;20426;-59
2022/07/19 07:41:40;;;;;;;7.20;2.80;;;24.20;99.90;;;;;;5026253;28;20028;-58
2022/07/19 07:44:06;;;;;;;8.77;2.88;;;24.40;99.90;;;;;;5026002;28;20104;-59
2022/07/19 07:46:32;;;;;;;7.70;2.55;;;24.40;99.90;;;;;;5028111;28;20100;-59
2022/07/19 07:48:58;;;;;;;5.05;2.42;;;24.60;99.90;;;;;;5026011;28;20017;-59
2022/07/19 07:51:24;;;;;;;6.07;2.72;;;24.80;99.90;;;;;;5027260;28;20084;-59
2022/07/19 07:53:49;;;;;;;6.60;2.45;;;24.90;99.90;;;;;;5028945;28;20029;-59
2022/07/19 07:56:15;;;;;;;4.60;2.70;;;25.00;99.90;;;;;;5026328;28;20025;-59
2022/07/19 07:58:41;;;;;;;7.63;3.00;;;25.10;99.90;;;;;;5028654;28;20029;-59
2022/07/19 08:01:06;;;;;;;4.50;2.63;;;25.30;99.90;;;;;;5065307;22;20482;-60
2022/07/19 08:03:32;;;;;;;7.45;3.25;;;25.40;99.90;;;;;;5045154;28;20511;-59
2022/07/19 08:05:58;;;;;;;7.10;2.75;;;25.50;99.90;;;;;;5047202;28;20429;-62
2022/07/19 08:08:26;;;;;;;11.27;2.88;;;25.60;99.90;;;;;;5046814;28;20021;-63
2022/07/19 08:10:53;;;;;;;6.70;2.53;;;25.70;99.90;;;;;;5033777;28;20036;-62
2022/07/19 08:13:19;;;;;;;5.00;2.83;;;25.90;99.90;;;;;;5026583;28;20037;-63
2022/07/19 08:15:45;;;;;;;8.73;3.15;;;26.00;99.90;;;;;;5023614;28;21672;-62
2022/07/19 08:18:10;;;;;;;7.75;2.30;;;26.10;99.90;;;;;;5029385;28;20108;-63
2022/07/19 08:20:36;;;;;;;8.38;2.63;;;26.20;99.90;;;;;;5022922;28;20053;-63
2022/07/19 08:23:01;;;;;;;7.40;2.55;;;26.40;99.90;;;;;;5026764;28;20755;-63
2022/07/19 08:25:27;;;;;;;7.25;2.95;;;26.60;99.90;;;;;;5032422;28;20024;-63
2022/07/19 08:27:53;;;;;;;4.88;2.60;;;26.70;99.90;;;;;;5028525;28;20029;-63
2022/07/19 08:30:18;;;;;;;7.53;2.95;;;26.80;99.90;;;;;;5022169;28;20472;-63
2022/07/19 08:32:44;;;;;;;8.02;2.75;;;27.00;99.90;;;;;;5017007;28;20033;-61
2022/07/19 08:35:10;;;;;;;11.57;2.85;;;27.20;99.90;;;;;;5027332;28;20028;-63
2022/07/19 08:37:35;;;;;;;9.75;2.65;;;27.30;99.90;;;;;;5015520;28;20511;-62
2022/07/19 08:40:03;;;;;;;7.65;2.80;;;27.40;99.90;;;;;;5020321;28;20021;-60
2022/07/19 08:42:30;;;;;;;5.43;2.72;;;27.50;99.90;;;;;;5025900;28;20057;-62
2022/07/19 08:45:00;;;;;;;3.53;2.20;;;27.60;99.90;;;;;;5026114;28;20025;-61
2022/07/19 08:47:27;;;;;;;5.47;2.90;;;27.70;99.90;;;;;;5027437;28;20060;-62
2022/07/19 08:49:53;;;;;;;7.47;2.22;;;27.90;99.90;;;;;;5026852;28;20472;-61
2022/07/19 08:52:19;;;;;;;9.07;2.88;;;28.10;99.90;;;;;;5023597;28;20033;-61
2022/07/19 08:54:45;;;;;;;5.82;2.40;;;28.20;99.90;;;;;;5014393;28;20029;-61
2022/07/19 08:59:55;;;;;;;7.25;2.30;;;28.50;99.90;;;;;;5020203;28;20037;-62
2022/07/19 09:02:20;;;;;;;7.28;3.00;;;28.60;99.90;;;;;;5016205;28;20038;-62
2022/07/19 09:05:00;;;;;;;7.15;2.65;;;28.80;99.90;;;;;;5023022;28;20041;-61
2022/07/19 09:07:26;;;;;;;6.43;2.83;;;28.90;99.90;;;;;;5025200;28;20514;-62
2022/07/19 09:09:52;;;;;;;6.78;2.50;;;29.10;99.90;;;;;;5013986;28;20026;-60
2022/07/19 09:12:17;;;;;;;6.93;2.45;;;29.20;99.90;;;;;;5021643;28;20491;-62
2022/07/19 09:14:53;;;;;;;8.75;2.83;;;29.40;99.90;;;;;;5020736;28;20514;-62
2022/07/19 09:17:20;;;;;;;16.55;3.17;;;29.60;99.90;;;;;;5004217;28;20030;-62
2022/07/19 09:19:49;;;;;;;8.13;2.85;;;29.70;99.90;;;;;;5017171;28;20029;-60
2022/07/19 09:22:17;;;;;;;8.77;2.92;;;29.80;99.90;;;;;;5025691;28;20025;-62
2022/07/19 09:24:49;;;;;;;5.50;2.30;;;30.00;99.90;;;;;;5022357;28;20052;-62
2022/07/19 09:27:29;;;;;;;12.15;2.60;;;30.10;99.90;;;;;;5022540;28;20025;-60
2022/07/19 09:29:56;;;;;;;3.13;2.25;;;30.20;99.90;;;;;;5013574;28;20025;-60
2022/07/19 09:32:26;;;;;;;7.18;2.65;;;30.40;99.90;;;;;;5012446;28;20083;-62
2022/07/19 09:35:01;;;;;;;8.35;2.28;;;30.50;99.90;;;;;;5014568;28;20361;-62
2022/07/19 09:37:28;;;;;;;6.38;2.65;;;30.80;99.90;;;;;;5015352;28;20507;-61
2022/07/19 09:39:56;;;;;;;4.13;2.55;;;31.00;99.90;;;;;;5015230;28;20047;-61
2022/07/19 09:42:25;;;;;;;11.13;2.63;;;31.20;99.60;;;;;;5021099;28;20387;-62
2022/07/19 09:44:58;;;;;;;5.68;2.17;;;31.40;99.90;;;;;;5017718;28;20022;-62
2022/07/19 09:47:35;;;;;;;3.30;2.10;;;31.60;99.90;;;;;;5023432;28;20109;-62
2022/07/19 09:50:06;;;;;;;8.48;2.17;;;31.80;97.90;;;;;;5023775;28;20022;-62
2022/07/19 09:52:34;;;;;;;6.47;2.13;;;32.10;94.80;;;;;;5017389;28;20041;-62
2022/07/19 09:55:04;;;;;;;8.20;2.25;;;32.30;94.10;;;;;;5014826;28;20140;-62
2022/07/19 09:57:34;;;;;;;3.95;1.85;;;32.60;93.50;;;;;;5020442;28;20025;-62
2022/07/19 10:00:01;;;;;;;6.65;2.38;;;32.80;91.30;;;;;;5019463;28;20033;-62
2022/07/19 10:02:29;;;;;;;8.52;1.95;;;33.00;91.70;;;;;;5022594;28;20112;-62
2022/07/19 10:04:56;;;;;;;4.88;2.22;;;33.30;90.40;;;;;;5027084;28;20089;-62
2022/07/19 10:07:22;;;;;;;4.28;2.17;;;33.40;86.80;;;;;;5024134;28;20029;-62
2022/07/19 10:09:49;;;;;;;8.68;2.65;;;33.60;84.00;;;;;;5015214;28;20104;-62
2022/07/19 10:12:15;;;;;;;4.82;2.25;;;33.80;83.80;;;;;;5016986;28;20896;-62
2022/07/19 10:14:42;;;;;;;7.68;2.60;;;34.00;82.30;;;;;;5022086;28;20029;-62
2022/07/19 10:17:26;;;;;;;7.03;2.33;;;34.10;81.40;;;;;;5029847;28;20029;-62
2022/07/19 10:19:51;;;;;;;;;;;34.30;82.50;;;;;;5010110;28;20026;-62
2022/07/19 10:22:20;;;;;;;4.95;2.10;;;34.50;78.10;;;;;;5026814;28;20379;-63
2022/07/19 10:24:52;;;;;;;4.78;2.05;;;34.60;75.90;;;;;;5023068;28;20041;-63
2022/07/19 10:27:25;;;;;;;5.30;2.40;;;34.80;71.90;;;;;;5028136;28;20493;-63
2022/07/19 10:29:51;;;;;;;5.30;2.10;;;34.90;73.40;;;;;;5018217;28;20022;-62
2022/07/19 10:32:16;;;;;;;8.02;2.13;;;35.10;69.40;;;;;;5024630;28;20169;-62
2022/07/19 10:34:46;;;;;;;6.00;1.80;;;35.20;68.80;;;;;;5030142;28;20928;-62
2022/07/19 10:37:11;;;;;;;5.88;2.42;;;35.30;70.60;;;;;;5023411;28;20029;-62
2022/07/19 10:39:39;;;;;;;5.40;1.75;;;35.30;68.10;;;;;;5029726;28;20025;-62
2022/07/19 10:42:20;;;;;;;6.97;1.92;;;35.50;67.00;;;;;;5019639;28;20040;-62
2022/07/19 10:44:59;;;;;;;6.72;2.25;;;35.60;65.00;;;;;;5024347;28;20084;-62
2022/07/19 10:47:40;;;;;;;2.67;1.70;;;35.80;65.00;;;;;;5016884;28;20395;-63
2022/07/19 10:50:14;;;;;;;5.43;2.08;;;36.00;64.30;;;;;;5017510;28;20119;-63
2022/07/19 10:52:42;;;;;;;4.43;1.92;;;36.00;64.50;;;;;;5020003;28;20081;-63
2022/07/19 10:55:17;;;;;;;3.85;1.52;;;36.10;65.90;;;;;;5023294;28;20025;-64
2022/07/19 10:57:48;;;;;;;3.00;1.98;;;36.30;60.80;;;;;;5025337;28;20068;-63
2022/07/19 11:00:18;;;;;;;6.32;2.17;;;36.40;62.00;;;;;;5008612;28;20032;-63
2022/07/19 11:02:45;;;;;;;2.13;1.60;;;36.40;61.80;;;;;;5022881;28;20450;-63
2022/07/19 11:05:24;;;;;;;9.80;1.98;;;36.60;63.50;;;;;;5023106;28;20033;-64
2022/07/19 11:07:52;;;;;;;4.03;2.05;;;36.70;63.00;;;;;;5024083;28;20026;-63
2022/07/19 11:10:28;;;;;;;7.85;1.77;;;36.70;59.40;;;;;;5029002;28;20383;-64
2022/07/19 11:12:57;;;;;;;6.80;1.90;;;36.70;58.20;;;;;;5015959;28;20503;-64
2022/07/19 11:15:23;;;;;;;8.48;1.90;;;36.90;58.30;;;;;;5028487;28;20128;-64
2022/07/19 11:17:51;;;;;;;4.97;1.70;;;37.00;62.40;;;;;;5029098;28;20033;-62
2022/07/19 11:20:19;;;;;;;4.50;2.03;;;37.20;61.20;;;;;;5025397;28;20045;-60
2022/07/19 11:22:46;;;;;;;6.03;1.85;;;37.10;60.40;;;;;;5034830;28;20108;-61
2022/07/19 11:25:15;;;;;;;3.00;1.77;;;37.00;61.60;;;;;;5026622;28;20025;-61
2022/07/19 11:27:44;;;;;;;3.50;1.90;;;37.10;59.80;;;;;;5034614;28;20033;-61
2022/07/19 11:30:12;;;;;;;4.47;2.00;;;37.20;60.10;;;;;;5031535;28;20064;-61
2022/07/19 11:32:41;;;;;;;4.82;2.05;;;37.30;62.20;;;;;;5027809;28;20045;-61
2022/07/19 11:35:09;;;;;;;9.77;2.25;;;37.30;59.90;;;;;;5021366;28;20476;-60
2022/07/19 11:37:40;;;;;;;2.53;1.88;;;37.30;60.90;;;;;;5032587;28;20603;-60
2022/07/19 11:40:07;;;;;;;6.88;2.08;;;37.40;59.60;;;;;;5033046;28;20487;-60
2022/07/19 11:42:37;;;;;;;2.33;1.83;;;37.40;57.10;;;;;;5027178;28;20501;-61
2022/07/19 11:45:10;;;;;;;5.82;1.80;;;37.50;59.50;;;;;;5028537;28;20021;-60
2022/07/19 11:47:36;;;;;;;4.95;1.88;;;37.30;59.90;;;;;;5028000;28;20029;-58
2022/07/19 11:50:06;;;;;;;8.88;2.22;;;37.30;56.10;;;;;;5038285;28;20029;-61
2022/07/19 11:52:48;;;;;;;2.53;2.17;;;37.50;61.20;;;;;;5028958;28;20137;-61
2022/07/19 11:55:21;;;;;;;6.07;2.13;;;37.70;55.60;;;;;;5026135;28;20090;-63
2022/07/19 11:57:47;;;;;;;6.05;2.55;;;37.90;55.40;;;;;;5029009;28;20057;-62
2022/07/19 12:00:14;;;;;;;3.40;1.85;;;38.00;55.30;;;;;;5015526;28;20091;-62
2022/07/19 12:03:04;;;;;;;4.53;1.90;;;38.00;59.10;;;;;;5027410;28;20492;-62
2022/07/19 12:05:32;;;;;;;2.35;1.60;;;38.00;58.50;;;;;;5029087;28;20415;-60
2022/07/19 12:08:00;;;;;;;8.10;2.03;;;38.20;56.70;;;;;;5025831;28;20021;-62
2022/07/19 12:10:44;;;;;;;3.85;2.20;;;38.40;54.70;;;;;;5038312;28;20437;-62
2022/07/19 12:13:11;;;;;;;;;;;38.20;55.10;;;;;;5035157;28;20167;-62
2022/07/19 12:15:42;;;;;;;2.67;1.38;;;38.40;57.00;;;;;;5029097;28;19913;-60
2022/07/19 12:18:08;;;;;;;3.35;1.63;;;38.70;53.90;;;;;;5028600;28;20040;-62
2022/07/19 12:20:33;;;;;;;4.03;1.58;;;38.50;54.90;;;;;;5025883;28;20033;-62
2022/07/19 12:23:12;;;;;;;4.63;1.70;;;38.50;53.00;;;;;;5026757;28;20045;-61
2022/07/19 12:25:38;;;;;;;3.35;2.00;;;38.20;52.00;;;;;;5023937;28;20031;-62
2022/07/19 12:28:03;;;;;;;5.03;2.30;;;38.20;52.10;;;;;;5026441;28;20026;-61
2022/07/19 12:30:29;;;;;;;3.17;2.22;;;38.60;53.60;;;;;;5032128;28;20100;-62
2022/07/19 12:33:14;;;;;;;6.68;2.05;;;38.30;51.10;;;;;;5017876;28;20032;-61
2022/07/19 12:35:45;;;;;;;3.38;1.85;;;38.30;51.60;;;;;;5019314;28;20029;-62
2022/07/19 12:38:11;;;;;;;2.80;2.33;;;38.50;54.00;;;;;;5017258;28;20033;-62
2022/07/19 12:40:39;;;;;;;3.00;2.20;;;38.70;51.40;;;;;;5023007;28;20034;-62
2022/07/19 12:43:05;;;;;;;6.10;2.10;;;38.90;50.00;;;;;;5026419;28;20033;-62
2022/07/19 12:45:43;;;;;;;3.78;1.92;;;39.30;51.20;;;;;;5026977;28;20036;-62
2022/07/19 12:48:11;;;;;;;3.70;2.25;;;39.40;50.40;;;;;;5024381;28;20585;-61
2022/07/19 12:50:42;;;;;;;5.38;2.42;;;39.30;52.00;;;;;;5022772;28;20021;-61